Time;durP1;ratioP1;P1;durP2;ratioP2;P2;SDS_P1;SDS_P2;PMS_P1;PMS_P2;Temp;Humidity;BMP_temperature;BMP_pressure;BME280_temperature;BME280_humidity;BME280_pressure;Samples;Min_cycle;Max_cycle;Signal;HPM_P1;HPM_P2
2023/03/31 00:02:20;;;;;;;12.23;7.22;;;;;;;10.90;95.80;100259.88;5134446;27;20059;-56
2023/03/31 00:04:51;;;;;;;12.88;7.07;;;;;;;10.88;97.07;100245.84;5153436;27;20430;-56
2023/03/31 00:07:20;;;;;;;13.10;7.00;;;;;;;10.86;97.02;100253.94;5149117;27;20106;-56
2023/03/31 00:09:46;;;;;;;10.00;6.63;;;;;;;10.87;97.22;100236.16;5132594;28;20011;-56
2023/03/31 00:12:13;;;;;;;10.27;6.93;;;;;;;10.78;97.69;100226.22;5114478;28;20367;-56
2023/03/31 00:14:39;;;;;;;10.50;6.30;;;;;;;10.86;98.25;100210.53;5114104;28;20076;-56
2023/03/31 00:17:07;;;;;;;12.88;6.47;;;;;;;10.82;97.75;100214.38;5132466;28;20031;-56
2023/03/31 00:19:32;;;;;;;11.02;5.95;;;;;;;10.80;98.10;100206.53;5133474;27;20034;-56
2023/03/31 00:22:00;;;;;;;10.65;7.10;;;;;;;10.74;98.29;100206.13;5132459;27;20019;-55
2023/03/31 00:24:27;;;;;;;11.85;6.93;;;;;;;10.68;98.81;100192.31;5132697;28;20019;-56
2023/03/31 00:26:53;;;;;;;11.88;6.60;;;;;;;10.74;98.64;100195.50;5114548;27;20012;-56
2023/03/31 00:29:18;;;;;;;11.93;7.03;;;;;;;10.68;98.94;100188.81;5137304;27;20057;-56
2023/03/31 00:31:43;;;;;;;12.13;6.90;;;;;;;10.62;99.16;100182.13;5146329;27;20033;-56
2023/03/31 00:34:09;;;;;;;10.70;6.38;;;;;;;10.62;99.85;100184.78;5123066;27;20031;-56
2023/03/31 00:36:35;;;;;;;12.13;7.28;;;;;;;10.65;99.35;100176.59;5117832;27;20026;-56
2023/03/31 00:39:07;;;;;;;12.05;7.30;;;;;;;10.62;99.48;100170.66;5136190;27;20071;-55
2023/03/31 00:41:33;;;;;;;11.43;6.97;;;;;;;10.64;99.00;100158.91;5135605;27;20512;-56
2023/03/31 00:44:12;;;;;;;12.85;7.18;;;;;;;10.60;99.81;100170.75;5137472;27;20102;-56
2023/03/31 00:47:12;;;;;;;12.52;6.68;;;;;;;10.61;99.71;100156.50;5134135;27;20381;-56
2023/03/31 00:49:44;;;;;;;15.05;7.45;;;;;;;10.61;99.58;100151.16;5153297;27;20039;-56
2023/03/31 00:52:20;;;;;;;12.00;6.72;;;;;;;10.60;99.89;100149.47;5156980;27;20027;-56
2023/03/31 00:54:48;;;;;;;16.17;7.53;;;;;;;10.61;99.77;100150.31;5154933;27;20030;-56
2023/03/31 00:57:14;;;;;;;17.65;7.18;;;;;;;10.63;99.82;100141.28;5156372;27;20026;-55
2023/03/31 00:59:46;;;;;;;14.20;6.88;;;;;;;10.62;99.63;100136.09;5156835;27;20019;-56
2023/03/31 01:02:14;;;;;;;10.75;6.80;;;;;;;10.62;99.55;100136.09;5137779;27;20046;-56
2023/03/31 01:04:49;;;;;;;14.10;6.82;;;;;;;10.57;99.68;100135.56;5136543;27;20019;-56
2023/03/31 01:07:24;;;;;;;13.25;6.63;;;;;;;10.61;99.99;100137.03;5156600;27;20049;-56
2023/03/31 01:09:53;;;;;;;12.80;6.60;;;;;;;10.62;100.00;100126.28;5153288;27;20441;-56
2023/03/31 01:12:21;;;;;;;14.13;6.65;;;;;;;10.59;99.71;100109.69;5135492;27;20026;-56
2023/03/31 01:14:48;;;;;;;12.55;6.57;;;;;;;10.63;99.87;100124.47;5147035;27;20033;-56
2023/03/31 01:17:17;;;;;;;14.48;6.25;;;;;;;10.60;100.00;100112.25;5137320;27;20030;-56
2023/03/31 01:19:50;;;;;;;12.70;6.77;;;;;;;10.62;100.00;100107.69;5156243;27;20026;-57
2023/03/31 01:22:37;;;;;;;13.65;6.50;;;;;;;10.71;99.78;100110.59;5137588;27;20833;-56
2023/03/31 01:25:31;;;;;;;17.50;7.25;;;;;;;10.71;99.83;100095.50;5154105;27;20033;-56
2023/03/31 01:28:33;;;;;;;11.48;6.35;;;;;;;10.67;100.00;100097.53;5156218;27;20465;-56
2023/03/31 01:31:08;;;;;;;14.35;6.20;;;;;;;10.58;100.00;100092.06;5136969;27;20022;-56
2023/03/31 01:34:04;;;;;;;16.67;7.18;;;;;;;10.65;100.00;100088.00;5154380;27;20023;-56
2023/03/31 01:36:45;;;;;;;14.35;6.93;;;;;;;10.57;100.00;100074.41;5154065;27;20023;-56
2023/03/31 01:39:41;;;;;;;15.93;7.30;;;;;;;10.59;100.00;100076.00;5154891;27;20050;-56
2023/03/31 01:42:38;;;;;;;14.85;7.30;;;;;;;10.61;100.00;100068.72;5137161;27;20052;-56
2023/03/31 01:45:40;;;;;;;18.38;8.38;;;;;;;10.60;100.00;100059.06;5145593;27;20512;-55
2023/03/31 01:48:16;;;;;;;15.75;6.95;;;;;;;10.58;100.00;100057.50;5114495;28;20055;-56
2023/03/31 01:51:27;;;;;;;19.10;7.85;;;;;;;10.56;100.00;100038.13;5114235;28;20016;-56
2023/03/31 01:54:24;;;;;;;15.40;7.20;;;;;;;10.59;100.00;100029.94;5130784;27;20067;-56
2023/03/31 01:57:04;;;;;;;11.93;7.55;;;;;;;10.56;100.00;100027.50;5113457;27;20053;-56
2023/03/31 01:59:37;;;;;;;13.23;6.78;;;;;;;10.55;100.00;100021.34;5136868;27;20102;-56
2023/03/31 02:02:13;;;;;;;13.95;6.95;;;;;;;10.50;100.00;100001.38;5154979;27;20022;-56
2023/03/31 02:04:43;;;;;;;17.98;7.63;;;;;;;10.45;100.00;99988.47;5135273;27;20074;-56
2023/03/31 02:07:16;;;;;;;14.30;6.90;;;;;;;10.51;100.00;100000.44;5155465;27;20014;-56
2023/03/31 02:09:50;;;;;;;16.77;7.55;;;;;;;10.46;100.00;99988.31;5153085;27;20026;-56
2023/03/31 02:12:18;;;;;;;15.85;7.50;;;;;;;10.42;100.00;99973.59;5134377;27;20161;-55
2023/03/31 02:14:46;;;;;;;11.80;6.80;;;;;;;10.44;100.00;99970.78;5117276;27;20031;-56
2023/03/31 02:17:20;;;;;;;17.05;6.78;;;;;;;10.45;100.00;99959.22;5115747;27;20175;-55
2023/03/31 02:19:50;;;;;;;20.42;7.70;;;;;;;10.42;100.00;99947.00;5134497;27;20435;-56
2023/03/31 02:22:18;;;;;;;16.17;7.70;;;;;;;10.40;100.00;99919.69;5134307;27;20031;-57
2023/03/31 02:24:46;;;;;;;17.55;7.70;;;;;;;10.50;100.00;99933.13;5135051;27;20034;-56
2023/03/31 02:27:20;;;;;;;18.05;8.10;;;;;;;10.48;100.00;99932.41;5134335;27;20493;-56
2023/03/31 02:29:49;;;;;;;16.65;7.43;;;;;;;10.44;100.00;99923.81;5115766;27;20026;-55
2023/03/31 02:32:27;;;;;;;17.63;7.45;;;;;;;10.46;100.00;99907.72;5133754;27;20098;-57
2023/03/31 02:34:54;;;;;;;16.08;7.43;;;;;;;10.48;100.00;99903.16;5116927;27;20031;-56
2023/03/31 02:37:20;;;;;;;21.38;7.47;;;;;;;10.49;100.00;99893.34;5115113;27;20047;-56
2023/03/31 02:39:50;;;;;;;20.95;8.07;;;;;;;10.42;100.00;99877.88;5115462;27;20156;-56
2023/03/31 02:42:16;;;;;;;18.52;7.78;;;;;;;10.44;100.00;99857.38;5134440;27;20030;-56
2023/03/31 02:44:42;;;;;;;15.32;6.93;;;;;;;10.46;100.00;99868.69;5131508;27;20376;-56
2023/03/31 02:47:14;;;;;;;19.90;7.90;;;;;;;10.41;100.00;99867.38;5118761;27;20110;-56
2023/03/31 02:49:48;;;;;;;18.17;7.35;;;;;;;10.45;100.00;99861.69;5154223;27;20106;-56
2023/03/31 02:52:37;;;;;;;19.02;8.23;;;;;;;10.38;100.00;99841.03;5154043;27;20363;-55
2023/03/31 02:55:15;;;;;;;23.45;8.73;;;;;;;10.42;100.00;99830.03;5152399;27;20042;-55
2023/03/31 02:58:17;;;;;;;21.77;8.07;;;;;;;10.53;100.00;99820.34;5154533;27;20026;-56
2023/03/31 03:00:57;;;;;;;20.27;8.60;;;;;;;10.42;100.00;99814.09;5135250;27;20125;-55
2023/03/31 03:03:37;;;;;;;19.55;9.02;;;;;;;10.44;100.00;99806.84;5154270;27;20083;-56
2023/03/31 03:06:26;;;;;;;18.23;7.60;;;;;;;10.46;100.00;99801.41;5152286;27;20546;-56
2023/03/31 03:09:33;;;;;;;21.43;8.70;;;;;;;10.49;100.00;99806.47;5104086;27;20095;-56
2023/03/31 03:12:24;;;;;;;15.70;7.22;;;;;;;10.46;100.00;99804.91;5093613;28;20369;-56
2023/03/31 03:15:06;;;;;;;19.98;8.38;;;;;;;10.42;100.00;99797.31;5127874;27;20171;-56
2023/03/31 03:17:38;;;;;;;17.73;8.27;;;;;;;10.37;100.00;99791.50;5133582;27;20158;-56
2023/03/31 03:20:08;;;;;;;16.70;7.65;;;;;;;10.29;100.00;99770.00;5133316;27;20406;-55
2023/03/31 03:22:36;;;;;;;21.90;7.70;;;;;;;10.40;100.00;99781.47;5114786;27;20023;-56
2023/03/31 03:25:01;;;;;;;17.48;6.95;;;;;;;10.41;100.00;99779.66;5134146;27;20480;-56
2023/03/31 03:27:30;;;;;;;19.60;8.07;;;;;;;10.35;100.00;99786.31;5133942;27;20105;-56
2023/03/31 03:29:55;;;;;;;21.08;7.72;;;;;;;10.35;100.00;99780.13;5153819;27;20058;-56
2023/03/31 03:32:21;;;;;;;18.33;7.43;;;;;;;10.29;100.00;99767.34;5134678;27;20546;-55
2023/03/31 03:34:46;;;;;;;16.85;7.05;;;;;;;10.37;100.00;99773.75;5135214;27;20030;-56
2023/03/31 03:37:11;;;;;;;17.60;7.60;;;;;;;10.27;100.00;99759.50;5135001;27;20014;-55
2023/03/31 03:39:37;;;;;;;17.40;7.63;;;;;;;10.30;100.00;99767.22;5118991;27;20393;-55
2023/03/31 03:42:03;;;;;;;21.05;8.00;;;;;;;10.27;100.00;99756.84;5114318;27;20071;-55
2023/03/31 03:44:31;;;;;;;19.40;7.88;;;;;;;10.19;100.00;99736.16;5133028;27;20080;-56
2023/03/31 03:46:56;;;;;;;19.58;7.40;;;;;;;10.23;100.00;99734.97;5114601;28;20023;-56
2023/03/31 03:49:22;;;;;;;17.52;7.53;;;;;;;10.28;100.00;99733.75;5142993;27;20166;-55
2023/03/31 03:51:47;;;;;;;17.13;7.88;;;;;;;10.29;100.00;99720.34;5134594;27;20029;-56
2023/03/31 03:54:13;;;;;;;18.73;7.70;;;;;;;10.19;100.00;99714.06;5153441;27;20023;-55
2023/03/31 03:56:38;;;;;;;16.88;7.63;;;;;;;10.10;100.00;99707.66;5153402;27;20087;-56
2023/03/31 03:59:03;;;;;;;16.33;7.43;;;;;;;10.09;100.00;99699.78;5151657;27;20021;-56
2023/03/31 04:01:29;;;;;;;16.02;6.88;;;;;;;10.08;100.00;99693.66;5149993;27;20107;-56
2023/03/31 04:03:54;;;;;;;19.15;7.50;;;;;;;10.07;100.00;99697.28;5136932;27;20030;-56
2023/03/31 04:06:20;;;;;;;16.38;7.25;;;;;;;10.04;100.00;99678.94;5118201;27;20023;-57
2023/03/31 04:08:45;;;;;;;13.70;6.90;;;;;;;10.08;100.00;99664.41;5137060;27;20076;-55
2023/03/31 04:11:16;;;;;;;15.65;7.30;;;;;;;10.09;100.00;99666.13;5118221;27;20060;-56
2023/03/31 04:13:42;;;;;;;11.18;6.28;;;;;;;10.10;100.00;99664.31;5138124;27;20030;-56
2023/03/31 04:16:08;;;;;;;14.57;7.47;;;;;;;10.11;100.00;99658.84;5143305;27;20061;-55
2023/03/31 04:18:36;;;;;;;14.73;5.70;;;;;;;10.12;100.00;99635.81;5139062;27;20055;-55
2023/03/31 04:21:04;;;;;;;14.15;6.80;;;;;;;10.07;100.00;99640.66;5117937;27;20015;-56
2023/03/31 04:23:37;;;;;;;16.45;7.60;;;;;;;10.08;100.00;99637.84;5136547;27;20029;-55
2023/03/31 04:26:07;;;;;;;15.15;7.28;;;;;;;10.07;100.00;99628.22;5136569;27;20513;-56
2023/03/31 04:28:36;;;;;;;11.38;6.63;;;;;;;9.95;100.00;99608.78;5149729;27;20027;-56
2023/03/31 04:31:05;;;;;;;13.27;6.28;;;;;;;10.07;100.00;99625.56;5120836;27;20026;-56
2023/03/31 04:33:32;;;;;;;14.90;7.30;;;;;;;10.04;100.00;99620.50;5137753;27;20054;-56
2023/03/31 04:36:05;;;;;;;14.02;6.50;;;;;;;10.07;100.00;99614.94;5151125;27;20448;-55
2023/03/31 04:38:32;;;;;;;11.23;6.40;;;;;;;10.06;100.00;99604.41;5157085;27;20070;-56
2023/03/31 04:41:00;;;;;;;15.32;6.82;;;;;;;9.98;100.00;99592.59;5138476;27;20015;-55
2023/03/31 04:43:26;;;;;;;9.90;6.10;;;;;;;10.05;100.00;99592.09;5157097;27;20026;-55
2023/03/31 04:45:51;;;;;;;13.50;6.90;;;;;;;10.01;100.00;99571.09;5134403;27;20362;-56
2023/03/31 04:48:16;;;;;;;12.73;6.85;;;;;;;10.07;100.00;99569.75;5156795;27;20053;-56
2023/03/31 04:50:42;;;;;;;10.35;7.20;;;;;;;10.12;100.00;99572.06;5156626;27;20023;-55
2023/03/31 04:53:08;;;;;;;16.98;7.20;;;;;;;10.09;100.00;99569.63;5138557;27;20018;-55
2023/03/31 04:55:33;;;;;;;13.27;6.93;;;;;;;10.09;100.00;99569.63;5137958;27;20050;-56
2023/03/31 04:58:00;;;;;;;13.70;6.18;;;;;;;10.08;100.00;99562.63;5139695;27;20019;-55
2023/03/31 05:00:25;;;;;;;14.25;6.05;;;;;;;10.02;100.00;99554.19;5145692;27;20361;-56
2023/03/31 05:02:51;;;;;;;11.25;6.30;;;;;;;10.06;100.00;99568.09;5138048;27;20133;-56
2023/03/31 05:05:16;;;;;;;13.18;6.60;;;;;;;10.04;100.00;99555.91;5137843;27;20022;-56
2023/03/31 05:07:42;;;;;;;11.73;6.47;;;;;;;9.97;100.00;99548.44;5156783;27;20027;-56
2023/03/31 05:10:07;;;;;;;11.18;6.30;;;;;;;9.98;100.00;99547.44;5133191;27;20046;-56
2023/03/31 05:12:34;;;;;;;10.82;5.95;;;;;;;9.93;100.00;99536.34;5135787;27;20072;-56
2023/03/31 05:15:00;;;;;;;10.55;6.30;;;;;;;9.94;100.00;99526.56;5135743;27;20025;-56
2023/03/31 05:17:31;;;;;;;10.32;5.65;;;;;;;9.88;100.00;99516.44;5116450;27;20110;-55
2023/03/31 05:19:56;;;;;;;12.40;6.95;;;;;;;9.89;100.00;99512.84;5135673;27;20031;-55
2023/03/31 05:22:22;;;;;;;13.70;7.10;;;;;;;9.84;100.00;99499.09;5154310;27;20151;-55
2023/03/31 05:24:47;;;;;;;13.77;6.38;;;;;;;9.86;100.00;99507.78;5156298;27;20030;-56
2023/03/31 05:27:13;;;;;;;13.80;6.07;;;;;;;9.84;100.00;99499.09;5156182;27;20018;-56
2023/03/31 05:29:38;;;;;;;7.80;6.10;;;;;;;9.86;100.00;99491.84;5156478;27;20163;-55
2023/03/31 05:32:06;;;;;;;12.65;6.43;;;;;;;9.90;100.00;99498.59;5142371;27;20024;-56
2023/03/31 05:34:31;;;;;;;9.57;6.28;;;;;;;9.91;100.00;99494.94;5135135;27;20075;-56
2023/03/31 05:37:00;;;;;;;11.55;6.78;;;;;;;9.84;100.00;99486.66;5134787;27;20043;-56
2023/03/31 05:39:31;;;;;;;10.52;6.55;;;;;;;9.82;100.00;99488.56;5134831;27;20055;-55
2023/03/31 05:41:57;;;;;;;13.02;6.47;;;;;;;9.87;100.00;99493.53;5142602;27;20050;-55
2023/03/31 05:44:23;;;;;;;11.73;5.78;;;;;;;9.83;100.00;99490.28;5153977;27;20385;-55
2023/03/31 05:46:48;;;;;;;12.63;6.18;;;;;;;9.84;100.00;99486.66;5154887;27;20046;-56
2023/03/31 05:49:15;;;;;;;9.82;6.32;;;;;;;9.83;100.00;99486.78;5155757;27;20423;-56
2023/03/31 05:51:40;;;;;;;10.38;6.40;;;;;;;9.81;100.00;99484.25;5155664;27;20097;-56
2023/03/31 05:54:06;;;;;;;11.55;6.43;;;;;;;9.76;100.00;99474.03;5154889;27;20457;-55
2023/03/31 05:56:31;;;;;;;13.45;7.00;;;;;;;9.80;100.00;99468.47;5136043;27;20027;-56
2023/03/31 05:58:59;;;;;;;14.73;7.00;;;;;;;9.76;100.00;99473.16;5155458;27;20498;-56
2023/03/31 06:01:25;;;;;;;8.60;6.25;;;;;;;9.79;100.00;99462.28;5135861;27;20059;-57
2023/03/31 06:03:50;;;;;;;12.00;6.78;;;;;;;9.78;100.00;99464.09;5155506;27;20026;-56
2023/03/31 06:06:16;;;;;;;10.98;6.47;;;;;;;9.81;100.00;99460.34;5141115;27;20023;-57
2023/03/31 06:08:45;;;;;;;12.00;6.57;;;;;;;9.85;100.00;99453.81;5116375;27;20057;-56
2023/03/31 06:11:14;;;;;;;12.88;6.20;;;;;;;9.64;100.00;99415.75;5117872;27;20118;-56
2023/03/31 06:13:40;;;;;;;9.30;6.72;;;;;;;9.84;100.00;99432.69;5134565;27;20058;-55
2023/03/31 06:16:05;;;;;;;11.82;6.30;;;;;;;9.80;100.00;99429.47;5133611;27;20058;-56
2023/03/31 06:18:33;;;;;;;14.18;6.53;;;;;;;9.83;100.00;99412.44;5115858;27;20474;-55
2023/03/31 06:21:01;;;;;;;8.98;6.35;;;;;;;9.75;100.00;99418.38;5135326;27;20023;-56
2023/03/31 06:23:26;;;;;;;10.93;5.97;;;;;;;9.84;100.00;99419.44;5152876;27;20026;-56
2023/03/31 06:25:54;;;;;;;11.75;7.25;;;;;;;9.72;100.00;99410.66;5154401;27;20018;-56
2023/03/31 06:28:20;;;;;;;11.10;6.88;;;;;;;9.77;100.00;99413.78;5155067;27;20397;-56
2023/03/31 06:30:46;;;;;;;11.55;6.88;;;;;;;9.73;100.00;99399.91;5135337;27;20015;-56
2023/03/31 06:33:12;;;;;;;10.68;6.65;;;;;;;9.75;100.00;99400.63;5134605;27;20111;-56
2023/03/31 06:35:39;;;;;;;10.45;6.05;;;;;;;9.76;100.00;99433.31;5150649;27;20019;-56
2023/03/31 06:38:05;;;;;;;15.55;7.18;;;;;;;9.86;100.00;99430.78;5115858;27;20118;-56
2023/03/31 06:40:31;;;;;;;14.32;7.45;;;;;;;9.80;100.00;99399.41;5133836;27;20473;-56
2023/03/31 06:42:56;;;;;;;11.85;7.00;;;;;;;9.87;100.00;99408.56;5115579;27;20033;-56
2023/03/31 06:45:22;;;;;;;9.90;7.38;;;;;;;9.81;100.00;99393.97;5114632;27;20065;-56
2023/03/31 06:47:47;;;;;;;12.95;6.47;;;;;;;9.85;100.00;99408.66;5129791;27;20039;-56
2023/03/31 06:50:13;;;;;;;13.43;7.70;;;;;;;9.82;100.00;99414.22;5133652;27;20079;-56
2023/03/31 06:52:40;;;;;;;13.00;7.20;;;;;;;9.85;100.00;99411.31;5127184;27;20061;-56
2023/03/31 06:55:07;;;;;;;15.00;7.20;;;;;;;9.88;100.00;99400.47;5154380;27;20487;-56
2023/03/31 06:57:33;;;;;;;15.65;7.70;;;;;;;9.90;100.00;99409.13;5135701;27;20477;-56
2023/03/31 06:59:59;;;;;;;12.95;6.43;;;;;;;9.84;100.00;99398.19;5153936;27;20022;-56
2023/03/31 07:02:24;;;;;;;14.35;7.95;;;;;;;9.90;100.00;99397.66;5128409;27;20023;-56
2023/03/31 07:04:50;;;;;;;15.05;8.13;;;;;;;9.91;100.00;99402.88;5133372;27;20030;-56
2023/03/31 07:07:15;;;;;;;20.83;8.25;;;;;;;9.84;100.00;99406.97;5114853;27;20023;-56
2023/03/31 07:09:41;;;;;;;16.30;8.57;;;;;;;10.02;100.00;99415.22;5115056;27;20106;-56
2023/03/31 07:12:06;;;;;;;15.63;8.20;;;;;;;9.87;100.00;99393.44;5133264;27;20051;-56
2023/03/31 07:14:31;;;;;;;16.77;8.23;;;;;;;9.89;100.00;99386.22;5133450;27;20147;-56
2023/03/31 07:16:58;;;;;;;11.57;7.60;;;;;;;9.91;100.00;99394.03;5127483;27;20381;-56
2023/03/31 07:19:23;;;;;;;17.38;8.60;;;;;;;9.87;100.00;99380.19;5154010;27;20381;-56
2023/03/31 07:21:49;;;;;;;18.88;7.78;;;;;;;9.96;100.00;99383.88;5153965;27;20023;-56
2023/03/31 07:24:15;;;;;;;16.38;7.78;;;;;;;9.98;100.00;99374.81;5153736;27;20122;-56
2023/03/31 07:26:40;;;;;;;13.13;7.15;;;;;;;9.99;100.00;99380.97;5151964;27;20067;-56
2023/03/31 07:29:06;;;;;;;12.32;7.07;;;;;;;10.01;100.00;99374.53;5137760;27;20129;-56
2023/03/31 07:31:32;;;;;;;10.02;6.07;;;;;;;9.94;100.00;99362.78;5132567;27;20374;-56
2023/03/31 07:33:57;;;;;;;12.93;6.18;;;;;;;10.06;100.00;99373.31;5114559;27;20022;-56
2023/03/31 07:36:23;;;;;;;12.25;6.78;;;;;;;10.01;100.00;99365.75;5132276;27;20024;-56
2023/03/31 07:38:48;;;;;;;9.90;6.20;;;;;;;10.04;100.00;99362.00;5141654;27;20426;-56
2023/03/31 07:41:17;;;;;;;11.18;6.35;;;;;;;10.05;100.00;99372.47;5119973;27;20027;-56
2023/03/31 07:43:43;;;;;;;8.47;6.33;;;;;;;10.08;100.00;99371.38;5148861;27;20034;-56
2023/03/31 07:46:27;;;;;;;12.85;6.97;;;;;;;10.12;100.00;99368.34;5134752;27;20046;-56
2023/03/31 07:48:54;;;;;;;12.98;7.03;;;;;;;10.11;100.00;99357.81;5153581;27;20098;-56
2023/03/31 07:51:23;;;;;;;17.75;7.32;;;;;;;10.20;100.00;99368.50;5121985;27;20034;-56
2023/03/31 07:53:51;;;;;;;20.47;8.40;;;;;;;10.27;100.00;99373.34;5114413;28;20073;-56
2023/03/31 07:56:22;;;;;;;23.77;8.95;;;;;;;10.24;100.00;99350.50;5132570;27;20344;-56
2023/03/31 07:58:54;;;;;;;21.30;8.55;;;;;;;10.34;100.00;99358.56;5114044;28;20435;-56
2023/03/31 08:01:20;;;;;;;24.02;9.60;;;;;;;10.35;100.00;99352.25;5133445;27;20030;-56
2023/03/31 08:03:47;;;;;;;16.63;8.85;;;;;;;10.41;100.00;99355.25;5132735;28;20038;-56
2023/03/31 08:06:18;;;;;;;21.13;8.32;;;;;;;10.41;100.00;99349.94;5139247;27;20115;-57
2023/03/31 08:08:44;;;;;;;19.27;8.90;;;;;;;10.49;100.00;99351.91;5122847;27;20023;-56
2023/03/31 08:11:09;;;;;;;21.80;8.65;;;;;;;10.56;100.00;99338.91;5129241;27;20026;-56
2023/03/31 08:13:35;;;;;;;22.58;8.85;;;;;;;10.60;100.00;99343.84;5130506;27;20027;-56
2023/03/31 08:16:01;;;;;;;20.80;8.43;;;;;;;10.60;100.00;99329.72;5131472;27;20469;-56
2023/03/31 08:18:26;;;;;;;21.45;8.45;;;;;;;10.65;100.00;99338.97;5136296;27;20031;-56
2023/03/31 08:20:51;;;;;;;22.55;8.23;;;;;;;10.72;100.00;99335.78;5142865;27;20075;-57
2023/03/31 08:23:17;;;;;;;19.77;8.80;;;;;;;10.81;100.00;99334.97;5115392;27;20489;-57
2023/03/31 08:25:42;;;;;;;25.92;8.27;;;;;;;10.86;100.00;99328.25;5112880;27;20031;-56
2023/03/31 08:28:12;;;;;;;22.90;8.30;;;;;;;10.83;100.00;99325.03;5131925;27;20015;-57
2023/03/31 08:30:39;;;;;;;29.40;10.48;;;;;;;10.88;100.00;99328.97;5131197;27;20020;-57
2023/03/31 08:33:06;;;;;;;21.45;8.65;;;;;;;10.92;100.00;99334.84;5114273;27;20522;-57
2023/03/31 08:35:32;;;;;;;22.85;9.02;;;;;;;10.92;100.00;99321.56;5113107;28;20019;-56
2023/03/31 08:37:57;;;;;;;19.45;7.93;;;;;;;11.01;100.00;99336.69;5131244;27;20053;-57
2023/03/31 08:40:26;;;;;;;23.17;7.82;;;;;;;11.05;100.00;99334.59;5131355;27;20019;-57
2023/03/31 08:43:21;;;;;;;24.05;8.93;;;;;;;11.19;100.00;99328.03;5132549;27;20027;-56
2023/03/31 08:45:48;;;;;;;22.65;8.90;;;;;;;10.97;100.00;99327.31;5107169;28;20035;-57
2023/03/31 08:48:31;;;;;;;17.88;8.70;;;;;;;11.08;100.00;99329.81;5138983;27;20019;-57
2023/03/31 08:51:05;;;;;;;18.88;8.45;;;;;;;11.07;100.00;99333.47;5135055;27;20496;-57
2023/03/31 08:53:41;;;;;;;24.30;8.95;;;;;;;11.13;100.00;99318.78;5119742;27;20019;-56
2023/03/31 08:56:15;;;;;;;25.02;9.25;;;;;;;11.18;100.00;99329.00;5135746;27;20026;-56
2023/03/31 08:58:49;;;;;;;23.00;9.65;;;;;;;11.24;100.00;99321.31;5117772;27;20385;-57
2023/03/31 09:01:38;;;;;;;24.70;8.50;;;;;;;11.30;100.00;99319.94;5135963;27;20355;-56
2023/03/31 09:04:42;;;;;;;30.02;9.80;;;;;;;11.41;100.00;99325.09;5116771;27;20055;-56
2023/03/31 09:07:17;;;;;;;22.92;8.85;;;;;;;11.41;100.00;99322.44;5116630;27;20035;-57
2023/03/31 09:10:03;;;;;;;25.95;9.48;;;;;;;11.50;100.00;99326.94;5135226;27;20527;-60
2023/03/31 09:12:49;;;;;;;22.67;8.77;;;;;;;11.55;99.03;99329.16;5149034;27;20049;-57
2023/03/31 09:15:41;;;;;;;18.40;8.50;;;;;;;11.65;98.88;99322.03;5135551;27;20037;-56
2023/03/31 09:18:20;;;;;;;17.83;8.38;;;;;;;11.63;99.40;99305.34;5116923;27;20042;-56
2023/03/31 09:20:55;;;;;;;24.73;9.25;;;;;;;11.68;96.62;99328.91;5134890;27;20026;-57
2023/03/31 09:23:28;;;;;;;27.85;9.40;;;;;;;11.65;95.07;99306.06;5117682;27;20091;-56
2023/03/31 09:25:56;;;;;;;16.95;7.70;;;;;;;11.64;93.33;99307.00;5117047;27;20038;-57
2023/03/31 09:28:28;;;;;;;24.35;8.70;;;;;;;11.59;95.48;99312.78;5141070;27;20474;-57
2023/03/31 09:30:55;;;;;;;22.50;8.57;;;;;;;11.64;93.30;99308.84;5136007;27;20031;-56
2023/03/31 09:33:30;;;;;;;22.50;8.73;;;;;;;11.63;92.28;99309.84;5143807;27;20034;-57
2023/03/31 09:35:57;;;;;;;22.55;9.13;;;;;;;11.70;91.67;99306.44;5134431;27;20030;-57
2023/03/31 09:38:23;;;;;;;20.08;8.15;;;;;;;11.85;93.47;99298.88;5103744;28;20052;-57
2023/03/31 09:40:49;;;;;;;18.67;8.32;;;;;;;11.90;90.82;99288.63;5095706;28;20478;-57
2023/03/31 09:43:26;;;;;;;22.15;8.60;;;;;;;11.99;88.37;99302.94;5093768;28;20487;-57
2023/03/31 09:45:53;;;;;;;20.40;8.15;;;;;;;12.12;89.30;99278.63;5092867;28;20035;-57
2023/03/31 09:48:21;;;;;;;14.88;6.60;;;;;;;12.14;87.56;99296.16;5093635;28;20030;-57
2023/03/31 09:51:14;;;;;;;18.30;6.93;;;;;;;12.20;87.65;99295.56;5094342;28;20043;-57
2023/03/31 09:53:47;;;;;;;17.58;6.47;;;;;;;12.20;86.77;99292.91;5093231;28;20019;-57
2023/03/31 09:56:30;;;;;;;18.48;6.18;;;;;;;12.27;87.81;99272.69;5104401;27;20089;-58
2023/03/31 09:59:00;;;;;;;14.10;6.20;;;;;;;12.43;84.80;99273.88;5093742;28;20035;-57
2023/03/31 10:01:28;;;;;;;18.63;6.25;;;;;;;12.38;82.59;99284.13;5102370;28;20027;-57
2023/03/31 10:03:54;;;;;;;17.40;6.90;;;;;;;12.41;84.60;99295.38;5101540;28;20024;-57
2023/03/31 10:06:21;;;;;;;16.95;6.88;;;;;;;12.48;82.71;99282.28;5093221;28;20027;-57
2023/03/31 10:08:56;;;;;;;17.98;6.72;;;;;;;12.42;85.32;99288.22;5092999;28;20036;-57
2023/03/31 10:11:23;;;;;;;15.15;6.95;;;;;;;12.33;85.43;99281.09;5094256;28;20028;-57
2023/03/31 10:14:13;;;;;;;14.50;6.18;;;;;;;12.42;84.70;99285.53;5092608;28;20600;-57
2023/03/31 10:16:56;;;;;;;15.40;6.63;;;;;;;12.48;82.60;99277.78;5090192;28;20047;-57
2023/03/31 10:19:26;;;;;;;17.90;6.53;;;;;;;12.32;83.84;99282.91;5093523;28;20052;-57
2023/03/31 10:21:57;;;;;;;14.85;6.30;;;;;;;12.39;83.76;99280.50;5094441;28;20050;-57
2023/03/31 10:24:22;;;;;;;9.18;5.35;;;;;;;12.34;82.11;99266.75;5097169;28;20145;-57
2023/03/31 10:26:51;;;;;;;13.63;6.63;;;;;;;12.31;82.40;99264.41;5092742;28;20090;-57
2023/03/31 10:29:34;;;;;;;11.48;6.00;;;;;;;12.32;82.48;99266.91;5092792;28;20032;-57
2023/03/31 10:32:10;;;;;;;16.75;7.03;;;;;;;12.25;84.09;99255.16;5092056;28;20037;-57
2023/03/31 10:34:41;;;;;;;14.93;7.07;;;;;;;12.23;83.73;99263.28;5090162;28;20028;-57
2023/03/31 10:37:10;;;;;;;14.23;6.53;;;;;;;12.20;82.92;99263.56;5092384;28;20027;-57
2023/03/31 10:39:35;;;;;;;15.90;7.50;;;;;;;12.15;84.49;99260.53;5129973;27;20054;-57
2023/03/31 10:42:01;;;;;;;14.80;7.05;;;;;;;12.17;84.00;99255.88;5134391;27;20023;-57
2023/03/31 10:44:32;;;;;;;16.02;7.15;;;;;;;12.14;83.69;99250.84;5115169;27;20478;-57
2023/03/31 10:47:13;;;;;;;17.23;6.70;;;;;;;12.18;84.06;99259.41;5116646;27;20512;-57
2023/03/31 10:49:41;;;;;;;20.75;7.45;;;;;;;12.25;82.78;99252.50;5133275;27;20011;-57
2023/03/31 10:52:19;;;;;;;15.65;6.80;;;;;;;12.34;84.12;99248.94;5133197;27;20080;-57
2023/03/31 10:54:56;;;;;;;14.63;7.38;;;;;;;12.36;81.57;99254.97;5113856;27;20381;-57
2023/03/31 10:57:36;;;;;;;17.42;7.07;;;;;;;12.42;80.97;99241.03;5133309;27;20019;-57
2023/03/31 11:00:11;;;;;;;15.35;6.95;;;;;;;12.39;82.32;99232.50;5138443;27;20585;-57
2023/03/31 11:02:50;;;;;;;17.05;7.60;;;;;;;12.35;83.57;99234.59;5154293;27;20029;-57
2023/03/31 11:05:24;;;;;;;15.10;7.18;;;;;;;12.35;82.65;99226.63;5153911;27;20161;-57
2023/03/31 11:08:12;;;;;;;15.45;6.70;;;;;;;12.20;84.20;99246.75;5154223;27;20065;-57
2023/03/31 11:11:00;;;;;;;16.23;6.75;;;;;;;12.08;84.25;99245.25;5150534;27;20473;-57
2023/03/31 11:13:33;;;;;;;19.80;7.95;;;;;;;11.93;87.41;99239.56;5135509;27;20461;-57
2023/03/31 11:16:13;;;;;;;19.25;7.20;;;;;;;11.99;86.80;99241.66;5134933;27;20045;-56
2023/03/31 11:19:25;;;;;;;20.48;8.45;;;;;;;12.14;87.59;99234.00;5153984;27;20035;-57
2023/03/31 11:22:16;;;;;;;18.67;8.10;;;;;;;12.23;85.74;99220.63;5087769;27;20042;-57
2023/03/31 11:25:20;;;;;;;19.42;7.43;;;;;;;12.32;84.98;99216.25;5132974;27;20026;-57
2023/03/31 11:27:54;;;;;;;17.55;7.80;;;;;;;12.34;84.63;99218.78;5132169;27;20023;-57
2023/03/31 11:30:32;;;;;;;18.50;8.20;;;;;;;12.47;85.07;99220.13;5113502;27;20043;-57
2023/03/31 11:33:19;;;;;;;19.05;8.32;;;;;;;12.65;82.95;99219.31;5116797;27;20019;-57
2023/03/31 11:36:07;;;;;;;13.98;6.80;;;;;;;12.68;81.91;99219.84;5114336;27;20031;-57
2023/03/31 11:39:02;;;;;;;17.35;8.05;;;;;;;12.66;81.03;99210.31;5132125;27;20051;-57
2023/03/31 11:41:36;;;;;;;20.35;7.72;;;;;;;12.70;80.17;99201.84;5101261;27;20537;-57